Ashland, Oregon
Current Conditions -  °F | °C
As of 3:53 PM on Wednesday 28 Jan 2015 (Local Time) from KMFR Reporting Station
Scattered Clouds Scattered Clouds  
Wind Chill: 54°   Ceiling: Unl
Heat Index: 54°   Visibility: 10mi
Dew Point: 38°   Wind: 0mph
Humidity: 55%   Direction: NA
Pressure: 30.26"   Gusts: NA
Location:  42.2°N, 122.71°W
Report Text: KMFR 282353Z 00000KT 10SM FEW070 SCT120 12/03 A3026 RMK AO2 SLP249 T01220033 10128 20039 56014
Loading
Personal Weather Stations






























Interactive Weather Map New forecast layout! Learn more

10-Day Weather Forecast

Advertisements
Track Severe Weather on mobile